sensor_id;sensor_type;location;lat;lon;timestamp;pressure;altitude;pressure_sealevel;temperature;humidity
10482;BME280;5288;42.334;23.876;2024-01-25T00:01:56;56505.97;;;-140.56;72.10
10482;BME280;5288;42.334;23.876;2024-01-25T00:04:23;56446.69;;;-140.56;72.38
10482;BME280;5288;42.334;23.876;2024-01-25T00:06:50;56492.13;;;-140.56;71.60
10482;BME280;5288;42.334;23.876;2024-01-25T00:09:17;56460.50;;;-140.56;71.63
10482;BME280;5288;42.334;23.876;2024-01-25T00:11:45;56480.28;;;-140.56;71.90
10482;BME280;5288;42.334;23.876;2024-01-25T00:14:12;56454.59;;;-140.56;71.80
10482;BME280;5288;42.334;23.876;2024-01-25T00:16:40;56515.84;;;-140.56;71.28
10482;BME280;5288;42.334;23.876;2024-01-25T00:19:09;56466.44;;;-140.56;70.15
10482;BME280;5288;42.334;23.876;2024-01-25T00:21:41;56466.44;;;-140.56;68.20
10482;BME280;5288;42.334;23.876;2024-01-25T00:24:11;56450.63;;;-140.56;67.60
10482;BME280;5288;42.334;23.876;2024-01-25T00:26:38;56448.66;;;-140.56;66.67
10482;BME280;5288;42.334;23.876;2024-01-25T00:29:05;56488.19;;;-140.56;65.34
10482;BME280;5288;42.334;23.876;2024-01-25T00:31:35;56444.69;;;-140.56;65.91
10482;BME280;5288;42.334;23.876;2024-01-25T00:34:03;56454.59;;;-140.56;65.42
10482;BME280;5288;42.334;23.876;2024-01-25T00:36:33;56458.53;;;-140.56;65.10
10482;BME280;5288;42.334;23.876;2024-01-25T00:39:00;56452.59;;;-140.56;64.62
10482;BME280;5288;42.334;23.876;2024-01-25T00:41:30;56444.69;;;-140.56;65.17
10482;BME280;5288;42.334;23.876;2024-01-25T00:43:59;56517.81;;;-140.56;64.46
10482;BME280;5288;42.334;23.876;2024-01-25T00:46:27;56478.28;;;-140.56;65.07
10482;BME280;5288;42.334;23.876;2024-01-25T00:48:54;56464.47;;;-140.56;64.60
10482;BME280;5288;42.334;23.876;2024-01-25T00:51:22;56434.81;;;-140.56;64.44
10482;BME280;5288;42.334;23.876;2024-01-25T00:53:51;56464.47;;;-140.56;64.05
10482;BME280;5288;42.334;23.876;2024-01-25T00:56:19;56482.25;;;-140.56;64.68
10482;BME280;5288;42.334;23.876;2024-01-25T00:58:48;56494.09;;;-140.56;65.87
10482;BME280;5288;42.334;23.876;2024-01-25T01:01:15;56480.28;;;-140.56;65.87
10482;BME280;5288;42.334;23.876;2024-01-25T01:03:43;56486.19;;;-140.56;66.94
10482;BME280;5288;42.334;23.876;2024-01-25T01:06:11;56436.78;;;-140.56;67.05
10482;BME280;5288;42.334;23.876;2024-01-25T01:08:40;56482.25;;;-140.56;67.13
10482;BME280;5288;42.334;23.876;2024-01-25T01:11:11;56466.44;;;-140.56;67.13
10482;BME280;5288;42.334;23.876;2024-01-25T01:13:38;56482.25;;;-140.56;66.82
10482;BME280;5288;42.334;23.876;2024-01-25T01:16:05;56436.78;;;-140.56;66.92
10482;BME280;5288;42.334;23.876;2024-01-25T01:18:33;56468.41;;;-140.56;67.76
10482;BME280;5288;42.334;23.876;2024-01-25T01:21:00;56476.31;;;-140.56;68.43
10482;BME280;5288;42.334;23.876;2024-01-25T01:23:27;56442.72;;;-140.56;68.42
10482;BME280;5288;42.334;23.876;2024-01-25T01:25:55;56486.19;;;-140.56;69.16
10482;BME280;5288;42.334;23.876;2024-01-25T01:28:23;56488.19;;;-140.56;69.44
10482;BME280;5288;42.334;23.876;2024-01-25T01:30:50;56494.09;;;-140.56;69.96
10482;BME280;5288;42.334;23.876;2024-01-25T01:33:18;56488.19;;;-140.56;70.71
10482;BME280;5288;42.334;23.876;2024-01-25T01:35:45;56490.16;;;-140.56;71.11
10482;BME280;5288;42.334;23.876;2024-01-25T01:38:12;56478.28;;;-140.56;71.49
10482;BME280;5288;42.334;23.876;2024-01-25T01:40:39;56422.97;;;-140.56;71.75
10482;BME280;5288;42.334;23.876;2024-01-25T01:43:07;56476.31;;;-140.56;72.51
10482;BME280;5288;42.334;23.876;2024-01-25T01:45:41;56500.03;;;-140.56;73.58
10482;BME280;5288;42.334;23.876;2024-01-25T01:48:08;56486.19;;;-140.56;74.14
10482;BME280;5288;42.334;23.876;2024-01-25T01:50:35;56502.00;;;-140.56;74.40
10482;BME280;5288;42.334;23.876;2024-01-25T01:53:05;56496.09;;;-140.56;73.38
10482;BME280;5288;42.334;23.876;2024-01-25T01:55:32;56472.38;;;-140.56;73.90
10482;BME280;5288;42.334;23.876;2024-01-25T01:58:00;56507.94;;;-140.56;74.05
10482;BME280;5288;42.334;23.876;2024-01-25T02:00:30;56492.13;;;-140.56;74.93
10482;BME280;5288;42.334;23.876;2024-01-25T02:02:59;56484.22;;;-140.56;76.31
10482;BME280;5288;42.334;23.876;2024-01-25T02:05:26;56482.25;;;-140.56;76.83
10482;BME280;5288;42.334;23.876;2024-01-25T02:07:53;56504.00;;;-140.56;77.50
10482;BME280;5288;42.334;23.876;2024-01-25T02:10:21;56539.56;;;-140.56;77.43
10482;BME280;5288;42.334;23.876;2024-01-25T02:12:48;56472.38;;;-140.56;78.07
10482;BME280;5288;42.334;23.876;2024-01-25T02:15:15;56458.53;;;-140.56;77.42
10482;BME280;5288;42.334;23.876;2024-01-25T02:17:42;56474.34;;;-140.56;77.40
10482;BME280;5288;42.334;23.876;2024-01-25T02:20:12;56488.19;;;-140.56;77.30
10482;BME280;5288;42.334;23.876;2024-01-25T02:22:40;56470.38;;;-140.56;75.85
10482;BME280;5288;42.334;23.876;2024-01-25T02:25:08;56484.22;;;-140.56;75.44
10482;BME280;5288;42.334;23.876;2024-01-25T02:27:35;56460.50;;;-140.56;75.23
10482;BME280;5288;42.334;23.876;2024-01-25T02:30:05;56472.38;;;-140.56;75.57
10482;BME280;5288;42.334;23.876;2024-01-25T02:32:33;56490.16;;;-140.56;76.31
10482;BME280;5288;42.334;23.876;2024-01-25T02:35:00;56476.31;;;-140.56;76.83
10482;BME280;5288;42.334;23.876;2024-01-25T02:37:27;56500.03;;;-140.56;76.91
10482;BME280;5288;42.334;23.876;2024-01-25T02:39:56;56496.09;;;-140.56;76.93
10482;BME280;5288;42.334;23.876;2024-01-25T02:42:24;56482.25;;;-140.56;76.23
10482;BME280;5288;42.334;23.876;2024-01-25T02:44:51;56494.09;;;-140.56;76.43
10482;BME280;5288;42.334;23.876;2024-01-25T02:47:18;56504.00;;;-140.56;75.86
10482;BME280;5288;42.334;23.876;2024-01-25T02:49:45;56478.28;;;-140.56;76.45
10482;BME280;5288;42.334;23.876;2024-01-25T02:52:13;56476.31;;;-140.56;76.26
10482;BME280;5288;42.334;23.876;2024-01-25T02:54:40;56492.13;;;-140.56;77.64
10482;BME280;5288;42.334;23.876;2024-01-25T02:57:09;56466.44;;;-140.56;77.73
10482;BME280;5288;42.334;23.876;2024-01-25T02:59:36;56482.25;;;-140.56;78.06
10482;BME280;5288;42.334;23.876;2024-01-25T03:02:03;56472.38;;;-140.56;79.06
10482;BME280;5288;42.334;23.876;2024-01-25T03:04:30;56460.50;;;-140.56;79.36
10482;BME280;5288;42.334;23.876;2024-01-25T03:06:58;56492.13;;;-140.56;78.84
10482;BME280;5288;42.334;23.876;2024-01-25T03:09:25;56494.09;;;-140.56;78.37
10482;BME280;5288;42.334;23.876;2024-01-25T03:11:53;56480.28;;;-140.56;76.82
10482;BME280;5288;42.334;23.876;2024-01-25T03:14:22;56456.56;;;-140.56;77.35
10482;BME280;5288;42.334;23.876;2024-01-25T03:16:49;56490.16;;;-140.56;77.91
10482;BME280;5288;42.334;23.876;2024-01-25T03:19:17;56462.47;;;-140.56;78.00
10482;BME280;5288;42.334;23.876;2024-01-25T03:21:45;56505.97;;;-140.56;77.26
10482;BME280;5288;42.334;23.876;2024-01-25T03:24:12;56488.19;;;-140.56;77.40
10482;BME280;5288;42.334;23.876;2024-01-25T03:26:39;56462.47;;;-140.56;78.86
10482;BME280;5288;42.334;23.876;2024-01-25T03:29:06;56452.59;;;-140.56;78.74
10482;BME280;5288;42.334;23.876;2024-01-25T03:31:35;56492.13;;;-140.56;79.49
10482;BME280;5288;42.334;23.876;2024-01-25T03:34:03;56478.28;;;-140.56;80.24
10482;BME280;5288;42.334;23.876;2024-01-25T03:36:30;56480.28;;;-140.56;81.33
10482;BME280;5288;42.334;23.876;2024-01-25T03:38:58;56458.53;;;-140.56;81.39
10482;BME280;5288;42.334;23.876;2024-01-25T03:41:25;56462.47;;;-140.56;81.44
10482;BME280;5288;42.334;23.876;2024-01-25T03:43:54;56496.09;;;-140.56;79.60
10482;BME280;5288;42.334;23.876;2024-01-25T03:46:22;56464.47;;;-140.56;79.97
10482;BME280;5288;42.334;23.876;2024-01-25T03:48:50;56496.09;;;-140.56;80.35
10482;BME280;5288;42.334;23.876;2024-01-25T03:51:20;56472.38;;;-140.56;84.92
10482;BME280;5288;42.334;23.876;2024-01-25T03:53:49;56438.78;;;-140.56;82.20
10482;BME280;5288;42.334;23.876;2024-01-25T03:56:18;56466.44;;;-140.56;79.73
10482;BME280;5288;42.334;23.876;2024-01-25T03:58:45;56472.38;;;-140.56;83.18
10482;BME280;5288;42.334;23.876;2024-01-25T04:01:13;56440.75;;;-140.56;82.50
10482;BME280;5288;42.334;23.876;2024-01-25T04:03:40;56476.31;;;-140.56;79.14
10482;BME280;5288;42.334;23.876;2024-01-25T04:06:09;56494.09;;;-140.56;78.53
10482;BME280;5288;42.334;23.876;2024-01-25T04:08:36;56460.50;;;-140.56;78.90
10482;BME280;5288;42.334;23.876;2024-01-25T04:11:04;56505.97;;;-140.56;79.49
10482;BME280;5288;42.334;23.876;2024-01-25T04:13:31;56490.16;;;-140.56;80.32
10482;BME280;5288;42.334;23.876;2024-01-25T04:15:58;56450.63;;;-140.56;81.74
10482;BME280;5288;42.334;23.876;2024-01-25T04:18:26;56464.47;;;-140.56;83.70
10482;BME280;5288;42.334;23.876;2024-01-25T04:20:53;56490.16;;;-140.56;84.99
10482;BME280;5288;42.334;23.876;2024-01-25T04:23:21;56478.28;;;-140.56;85.62
10482;BME280;5288;42.334;23.876;2024-01-25T04:25:49;56490.16;;;-140.56;87.63
10482;BME280;5288;42.334;23.876;2024-01-25T04:28:17;56500.03;;;-140.56;89.07
10482;BME280;5288;42.334;23.876;2024-01-25T04:30:44;56464.47;;;-140.56;88.61
10482;BME280;5288;42.334;23.876;2024-01-25T04:33:11;56476.31;;;-140.56;87.92
10482;BME280;5288;42.334;23.876;2024-01-25T04:35:39;56450.63;;;-140.56;88.16
10482;BME280;5288;42.334;23.876;2024-01-25T04:38:06;56492.13;;;-140.56;88.47
10482;BME280;5288;42.334;23.876;2024-01-25T04:40:35;56496.09;;;-140.56;89.02
10482;BME280;5288;42.334;23.876;2024-01-25T04:43:02;56460.50;;;-140.56;89.07
10482;BME280;5288;42.334;23.876;2024-01-25T04:45:31;56476.31;;;-140.56;90.40
10482;BME280;5288;42.334;23.876;2024-01-25T04:47:58;56462.47;;;-140.56;91.56
10482;BME280;5288;42.334;23.876;2024-01-25T04:50:25;56462.47;;;-140.56;92.38
10482;BME280;5288;42.334;23.876;2024-01-25T04:52:52;56488.19;;;-140.56;92.69
10482;BME280;5288;42.334;23.876;2024-01-25T04:55:20;56476.31;;;-140.56;92.43
10482;BME280;5288;42.334;23.876;2024-01-25T04:57:48;56492.13;;;-140.56;92.03
10482;BME280;5288;42.334;23.876;2024-01-25T05:00:19;56474.34;;;-140.56;91.72
10482;BME280;5288;42.334;23.876;2024-01-25T05:02:47;56470.38;;;-140.56;92.13
10482;BME280;5288;42.334;23.876;2024-01-25T05:05:14;56486.19;;;-140.56;92.35
10482;BME280;5288;42.334;23.876;2024-01-25T05:07:41;56490.16;;;-140.56;92.66
10482;BME280;5288;42.334;23.876;2024-01-25T05:10:09;56440.75;;;-140.56;93.35
10482;BME280;5288;42.334;23.876;2024-01-25T05:12:37;56482.25;;;-140.56;93.94
10482;BME280;5288;42.334;23.876;2024-01-25T05:15:07;56480.28;;;-140.56;95.02
10482;BME280;5288;42.334;23.876;2024-01-25T05:17:34;56490.16;;;-140.56;94.35
10482;BME280;5288;42.334;23.876;2024-01-25T05:20:01;56466.44;;;-140.56;94.03
10482;BME280;5288;42.334;23.876;2024-01-25T05:22:29;56464.47;;;-140.56;93.83
10482;BME280;5288;42.334;23.876;2024-01-25T05:24:57;56466.44;;;-140.56;93.22
10482;BME280;5288;42.334;23.876;2024-01-25T05:27:24;56474.34;;;-140.56;93.52
10482;BME280;5288;42.334;23.876;2024-01-25T05:29:51;56454.59;;;-140.56;93.53
10482;BME280;5288;42.334;23.876;2024-01-25T05:32:20;56440.75;;;-140.56;94.00
10482;BME280;5288;42.334;23.876;2024-01-25T05:34:47;56444.69;;;-140.56;94.96
10482;BME280;5288;42.334;23.876;2024-01-25T05:37:15;56492.13;;;-140.56;95.98
10482;BME280;5288;42.334;23.876;2024-01-25T05:39:42;56436.78;;;-140.56;96.78
10482;BME280;5288;42.334;23.876;2024-01-25T05:42:09;56505.97;;;-140.56;96.97
10482;BME280;5288;42.334;23.876;2024-01-25T05:44:37;56464.47;;;-140.56;97.39
10482;BME280;5288;42.334;23.876;2024-01-25T05:47:04;56488.19;;;-140.56;98.04
10482;BME280;5288;42.334;23.876;2024-01-25T05:49:33;56472.38;;;-140.56;98.89
10482;BME280;5288;42.334;23.876;2024-01-25T05:52:00;56472.38;;;-140.56;99.35
10482;BME280;5288;42.334;23.876;2024-01-25T05:54:27;56460.50;;;-140.56;99.45
10482;BME280;5288;42.334;23.876;2024-01-25T05:56:54;56460.50;;;-140.56;96.81
10482;BME280;5288;42.334;23.876;2024-01-25T05:59:22;56478.28;;;-140.56;92.90
10482;BME280;5288;42.334;23.876;2024-01-25T06:01:49;56438.78;;;-140.56;91.89
10482;BME280;5288;42.334;23.876;2024-01-25T06:04:16;56482.25;;;-140.56;92.77
10482;BME280;5288;42.334;23.876;2024-01-25T06:06:46;56436.78;;;-140.56;94.13
10482;BME280;5288;42.334;23.876;2024-01-25T06:09:13;56444.69;;;-140.56;94.50
10482;BME280;5288;42.334;23.876;2024-01-25T06:11:41;56448.66;;;-140.56;94.91
10482;BME280;5288;42.334;23.876;2024-01-25T06:14:08;56474.34;;;-140.56;92.88
10482;BME280;5288;42.334;23.876;2024-01-25T06:16:36;56444.69;;;-140.56;91.73
10482;BME280;5288;42.334;23.876;2024-01-25T06:19:03;56430.88;;;-140.56;90.80
10482;BME280;5288;42.334;23.876;2024-01-25T06:21:31;56474.34;;;-140.56;91.33
10482;BME280;5288;42.334;23.876;2024-01-25T06:24:01;56472.38;;;-140.56;91.31
10482;BME280;5288;42.334;23.876;2024-01-25T06:26:28;56458.53;;;-140.56;91.52
10482;BME280;5288;42.334;23.876;2024-01-25T06:28:55;56486.19;;;-140.56;92.63
10482;BME280;5288;42.334;23.876;2024-01-25T06:31:23;56440.75;;;-140.56;93.28
10482;BME280;5288;42.334;23.876;2024-01-25T06:33:50;56484.22;;;-140.56;93.91
10482;BME280;5288;42.334;23.876;2024-01-25T06:36:18;56454.59;;;-140.56;93.06
10482;BME280;5288;42.334;23.876;2024-01-25T06:38:45;56480.28;;;-140.56;92.74
10482;BME280;5288;42.334;23.876;2024-01-25T06:41:14;56464.47;;;-140.56;92.74
10482;BME280;5288;42.334;23.876;2024-01-25T06:43:42;56470.38;;;-140.56;94.08
10482;BME280;5288;42.334;23.876;2024-01-25T06:46:10;56502.00;;;-140.56;94.46
10482;BME280;5288;42.334;23.876;2024-01-25T06:48:37;56444.69;;;-140.56;94.52
10482;BME280;5288;42.334;23.876;2024-01-25T06:51:04;56464.47;;;-140.56;95.37
10482;BME280;5288;42.334;23.876;2024-01-25T06:53:31;56486.19;;;-140.56;95.99
10482;BME280;5288;42.334;23.876;2024-01-25T06:55:59;56474.34;;;-140.56;95.77
10482;BME280;5288;42.334;23.876;2024-01-25T06:58:27;56456.56;;;-140.56;95.54
10482;BME280;5288;42.334;23.876;2024-01-25T07:00:55;56492.13;;;-140.56;94.94
10482;BME280;5288;42.334;23.876;2024-01-25T07:03:22;56500.03;;;-140.56;94.69
10482;BME280;5288;42.334;23.876;2024-01-25T07:05:50;56484.22;;;-140.56;94.05
10482;BME280;5288;42.334;23.876;2024-01-25T07:08:17;56454.59;;;-140.56;94.01
10482;BME280;5288;42.334;23.876;2024-01-25T07:10:44;56482.25;;;-140.56;93.45
10482;BME280;5288;42.334;23.876;2024-01-25T07:13:12;56480.28;;;-140.56;92.30
10482;BME280;5288;42.334;23.876;2024-01-25T07:15:41;56476.31;;;-140.56;91.59
10482;BME280;5288;42.334;23.876;2024-01-25T07:18:08;56472.38;;;-140.56;89.51
10482;BME280;5288;42.334;23.876;2024-01-25T07:20:36;56498.06;;;-140.56;87.99
10482;BME280;5288;42.334;23.876;2024-01-25T07:23:03;56468.41;;;-140.56;85.36
10482;BME280;5288;42.334;23.876;2024-01-25T07:25:30;56422.97;;;-140.56;82.77
10482;BME280;5288;42.334;23.876;2024-01-25T07:27:58;56440.75;;;-140.56;82.21
10482;BME280;5288;42.334;23.876;2024-01-25T07:30:25;56474.34;;;-140.56;80.50
10482;BME280;5288;42.334;23.876;2024-01-25T07:32:54;56446.69;;;-140.56;78.57
10482;BME280;5288;42.334;23.876;2024-01-25T07:35:21;56464.47;;;-140.56;77.67
10482;BME280;5288;42.334;23.876;2024-01-25T07:37:49;56446.69;;;-140.56;76.49
10482;BME280;5288;42.334;23.876;2024-01-25T07:40:17;56434.81;;;-140.56;73.58
10482;BME280;5288;42.334;23.876;2024-01-25T07:42:44;56430.88;;;-140.56;72.34
10482;BME280;5288;42.334;23.876;2024-01-25T07:45:13;56413.06;;;-140.56;69.00
10482;BME280;5288;42.334;23.876;2024-01-25T07:47:41;56430.88;;;-140.56;65.86
10482;BME280;5288;42.334;23.876;2024-01-25T07:50:10;56415.06;;;-140.56;63.53
10482;BME280;5288;42.334;23.876;2024-01-25T07:52:37;56422.97;;;-140.56;62.64
10482;BME280;5288;42.334;23.876;2024-01-25T07:55:05;56420.97;;;-140.56;62.16
10482;BME280;5288;42.334;23.876;2024-01-25T07:57:32;56399.25;;;-140.56;60.99
10482;BME280;5288;42.334;23.876;2024-01-25T08:00:00;56419.00;;;-140.56;61.62
10482;BME280;5288;42.334;23.876;2024-01-25T08:02:27;56458.53;;;-140.56;61.30
10482;BME280;5288;42.334;23.876;2024-01-25T08:04:54;56420.97;;;-140.56;61.82
10482;BME280;5288;42.334;23.876;2024-01-25T08:07:25;56419.00;;;-140.56;61.29
10482;BME280;5288;42.334;23.876;2024-01-25T08:09:52;56419.00;;;-140.56;60.77
10482;BME280;5288;42.334;23.876;2024-01-25T08:12:23;56415.06;;;-140.56;59.98
10482;BME280;5288;42.334;23.876;2024-01-25T08:14:50;56383.44;;;-140.56;58.94
10482;BME280;5288;42.334;23.876;2024-01-25T08:17:17;56428.88;;;-140.56;57.40
10482;BME280;5288;42.334;23.876;2024-01-25T08:19:46;56415.06;;;-140.56;57.71
10482;BME280;5288;42.334;23.876;2024-01-25T08:22:13;56432.84;;;-140.56;57.07
10482;BME280;5288;42.334;23.876;2024-01-25T08:24:42;56424.94;;;-140.56;56.82
10482;BME280;5288;42.334;23.876;2024-01-25T08:27:09;56415.06;;;-140.56;56.03
10482;BME280;5288;42.334;23.876;2024-01-25T08:29:36;56403.19;;;-140.56;56.13
10482;BME280;5288;42.334;23.876;2024-01-25T08:32:04;56420.97;;;-140.56;55.32
10482;BME280;5288;42.334;23.876;2024-01-25T08:34:31;56405.16;;;-140.56;54.68
10482;BME280;5288;42.334;23.876;2024-01-25T08:36:58;56419.00;;;-140.56;54.66
10482;BME280;5288;42.334;23.876;2024-01-25T08:39:31;56387.38;;;-140.56;55.21
10482;BME280;5288;42.334;23.876;2024-01-25T08:42:00;56426.91;;;-140.56;54.60
10482;BME280;5288;42.334;23.876;2024-01-25T08:44:29;56428.88;;;-140.56;53.69
10482;BME280;5288;42.334;23.876;2024-01-25T08:46:57;56399.25;;;-140.56;52.31
10482;BME280;5288;42.334;23.876;2024-01-25T08:49:26;56415.06;;;-140.56;51.52
10482;BME280;5288;42.334;23.876;2024-01-25T08:51:53;56415.06;;;-140.56;51.51
10482;BME280;5288;42.334;23.876;2024-01-25T08:54:20;56438.78;;;-140.56;52.19
10482;BME280;5288;42.334;23.876;2024-01-25T08:56:48;56383.44;;;-140.56;52.24
10482;BME280;5288;42.334;23.876;2024-01-25T08:59:16;56432.84;;;-140.56;50.59
10482;BME280;5288;42.334;23.876;2024-01-25T09:01:44;56381.44;;;-140.56;51.05
10482;BME280;5288;42.334;23.876;2024-01-25T09:04:11;56407.16;;;-140.56;50.34
10482;BME280;5288;42.334;23.876;2024-01-25T09:06:39;56399.25;;;-140.56;49.87
10482;BME280;5288;42.334;23.876;2024-01-25T09:09:09;56399.25;;;-140.56;48.75
10482;BME280;5288;42.334;23.876;2024-01-25T09:11:38;56355.75;;;-140.56;49.37
10482;BME280;5288;42.334;23.876;2024-01-25T09:14:05;56375.53;;;-140.56;50.55
10482;BME280;5288;42.334;23.876;2024-01-25T09:16:34;56387.38;;;-140.56;49.66
10482;BME280;5288;42.334;23.876;2024-01-25T09:19:03;56405.16;;;-140.56;49.76
10482;BME280;5288;42.334;23.876;2024-01-25T09:21:30;56343.91;;;-140.56;49.58
10482;BME280;5288;42.334;23.876;2024-01-25T09:23:58;56373.56;;;-140.56;49.66
10482;BME280;5288;42.334;23.876;2024-01-25T09:26:26;56377.50;;;-140.56;49.15
10482;BME280;5288;42.334;23.876;2024-01-25T09:28:54;56391.34;;;-140.56;49.53
10482;BME280;5288;42.334;23.876;2024-01-25T09:31:21;56367.63;;;-140.56;49.70
10482;BME280;5288;42.334;23.876;2024-01-25T09:33:50;56405.16;;;-140.56;48.27
10482;BME280;5288;42.334;23.876;2024-01-25T09:36:18;56387.38;;;-140.56;47.18
10482;BME280;5288;42.334;23.876;2024-01-25T09:38:45;56367.63;;;-140.56;45.90
10482;BME280;5288;42.334;23.876;2024-01-25T09:41:14;56343.91;;;-140.56;46.19
10482;BME280;5288;42.334;23.876;2024-01-25T09:43:41;56383.44;;;-140.56;46.13
10482;BME280;5288;42.334;23.876;2024-01-25T09:46:12;56381.44;;;-140.56;45.62
10482;BME280;5288;42.334;23.876;2024-01-25T09:48:40;56369.59;;;-140.56;46.07
10482;BME280;5288;42.334;23.876;2024-01-25T09:51:11;56379.47;;;-140.56;45.38
10482;BME280;5288;42.334;23.876;2024-01-25T09:53:39;56385.41;;;-140.56;46.05
10482;BME280;5288;42.334;23.876;2024-01-25T09:56:08;56365.66;;;-140.56;45.99
10482;BME280;5288;42.334;23.876;2024-01-25T09:58:40;56363.66;;;-140.56;46.69
10482;BME280;5288;42.334;23.876;2024-01-25T10:01:09;56371.56;;;-140.56;45.70
10482;BME280;5288;42.334;23.876;2024-01-25T10:03:38;56377.50;;;-140.56;45.98
10482;BME280;5288;42.334;23.876;2024-01-25T10:06:07;56385.41;;;-140.56;45.64
10482;BME280;5288;42.334;23.876;2024-01-25T10:08:36;56363.66;;;-140.56;44.34
10482;BME280;5288;42.334;23.876;2024-01-25T10:11:03;56371.56;;;-140.56;44.87
10482;BME280;5288;42.334;23.876;2024-01-25T10:13:31;56355.75;;;-140.56;44.91
10482;BME280;5288;42.334;23.876;2024-01-25T10:15:58;56343.91;;;-140.56;46.70
10482;BME280;5288;42.334;23.876;2024-01-25T10:18:26;56365.66;;;-140.56;46.07
10482;BME280;5288;42.334;23.876;2024-01-25T10:20:53;56381.44;;;-140.56;46.03
10482;BME280;5288;42.334;23.876;2024-01-25T10:23:21;56373.56;;;-140.56;46.21
10482;BME280;5288;42.334;23.876;2024-01-25T10:25:50;56365.66;;;-140.56;46.92
10482;BME280;5288;42.334;23.876;2024-01-25T10:28:17;56363.66;;;-140.56;45.95
10482;BME280;5288;42.334;23.876;2024-01-25T10:30:45;56357.75;;;-140.56;47.22
10482;BME280;5288;42.334;23.876;2024-01-25T10:33:14;56353.78;;;-140.56;46.97
10482;BME280;5288;42.334;23.876;2024-01-25T10:35:42;56336.00;;;-140.56;46.90
10482;BME280;5288;42.334;23.876;2024-01-25T10:38:11;56332.03;;;-140.56;46.42
10482;BME280;5288;42.334;23.876;2024-01-25T10:40:39;56383.44;;;-140.56;46.36
10482;BME280;5288;42.334;23.876;2024-01-25T10:43:09;56369.59;;;-140.56;47.27
10482;BME280;5288;42.334;23.876;2024-01-25T10:45:36;56373.56;;;-140.56;46.96
10482;BME280;5288;42.334;23.876;2024-01-25T10:48:04;56367.63;;;-140.56;46.65
10482;BME280;5288;42.334;23.876;2024-01-25T10:50:32;56349.84;;;-140.56;47.32
10482;BME280;5288;42.334;23.876;2024-01-25T10:52:59;56337.97;;;-140.56;46.59
10482;BME280;5288;42.334;23.876;2024-01-25T10:55:28;56320.19;;;-140.56;46.29
10482;BME280;5288;42.334;23.876;2024-01-25T10:57:55;56355.75;;;-140.56;45.92
10482;BME280;5288;42.334;23.876;2024-01-25T11:00:25;56359.72;;;-140.56;46.41
10482;BME280;5288;42.334;23.876;2024-01-25T11:02:52;56355.75;;;-140.56;46.46
10482;BME280;5288;42.334;23.876;2024-01-25T11:05:19;56341.94;;;-140.56;46.57
10482;BME280;5288;42.334;23.876;2024-01-25T11:07:48;56320.19;;;-140.56;46.18
10482;BME280;5288;42.334;23.876;2024-01-25T11:10:17;56306.34;;;-140.56;45.21
10482;BME280;5288;42.334;23.876;2024-01-25T11:12:54;56361.69;;;-140.56;46.68
10482;BME280;5288;42.334;23.876;2024-01-25T11:15:24;56347.84;;;-140.56;46.80
10482;BME280;5288;42.334;23.876;2024-01-25T11:17:56;56347.84;;;-140.56;47.26
10482;BME280;5288;42.334;23.876;2024-01-25T11:20:25;56361.69;;;-140.56;46.52
10482;BME280;5288;42.334;23.876;2024-01-25T11:22:56;56361.69;;;-140.56;46.89
10482;BME280;5288;42.334;23.876;2024-01-25T11:25:27;56399.25;;;-140.56;47.53
10482;BME280;5288;42.334;23.876;2024-01-25T11:27:55;56371.56;;;-140.56;47.59
10482;BME280;5288;42.334;23.876;2024-01-25T11:30:25;56363.66;;;-140.56;46.59
10482;BME280;5288;42.334;23.876;2024-01-25T11:32:53;56367.63;;;-140.56;45.79
10482;BME280;5288;42.334;23.876;2024-01-25T11:35:21;56351.81;;;-140.56;46.27
10482;BME280;5288;42.334;23.876;2024-01-25T11:37:49;56381.44;;;-140.56;46.78
10482;BME280;5288;42.334;23.876;2024-01-25T11:40:18;56353.78;;;-140.56;46.79
10482;BME280;5288;42.334;23.876;2024-01-25T11:42:49;56361.69;;;-140.56;46.58
10482;BME280;5288;42.334;23.876;2024-01-25T11:45:17;56369.59;;;-140.56;47.51
10482;BME280;5288;42.334;23.876;2024-01-25T11:47:46;56355.75;;;-140.56;47.67
10482;BME280;5288;42.334;23.876;2024-01-25T11:50:13;56361.69;;;-140.56;47.31
10482;BME280;5288;42.334;23.876;2024-01-25T11:52:40;56365.66;;;-140.56;47.39
10482;BME280;5288;42.334;23.876;2024-01-25T11:55:09;56334.03;;;-140.56;47.76
10482;BME280;5288;42.334;23.876;2024-01-25T11:57:37;56393.31;;;-140.56;48.76
10482;BME280;5288;42.334;23.876;2024-01-25T12:00:08;56373.56;;;-140.56;48.30
10482;BME280;5288;42.334;23.876;2024-01-25T12:02:36;56385.41;;;-140.56;47.79
10482;BME280;5288;42.334;23.876;2024-01-25T12:05:06;56345.88;;;-140.56;47.65
10482;BME280;5288;42.334;23.876;2024-01-25T12:07:36;56355.75;;;-140.56;47.72
10482;BME280;5288;42.334;23.876;2024-01-25T12:10:04;56324.13;;;-140.56;48.52
10482;BME280;5288;42.334;23.876;2024-01-25T12:12:32;56401.22;;;-140.56;47.27
10482;BME280;5288;42.334;23.876;2024-01-25T12:14:59;56379.47;;;-140.56;46.95
10482;BME280;5288;42.334;23.876;2024-01-25T12:17:29;56405.16;;;-140.56;47.03
10482;BME280;5288;42.334;23.876;2024-01-25T12:19:57;56365.66;;;-140.56;46.23
10482;BME280;5288;42.334;23.876;2024-01-25T12:22:27;56353.78;;;-140.56;47.28
10482;BME280;5288;42.334;23.876;2024-01-25T12:24:55;56365.66;;;-140.56;48.03
10482;BME280;5288;42.334;23.876;2024-01-25T12:27:24;56361.69;;;-140.56;47.64
10482;BME280;5288;42.334;23.876;2024-01-25T12:29:52;56379.47;;;-140.56;47.36
10482;BME280;5288;42.334;23.876;2024-01-25T12:32:20;56383.44;;;-140.56;47.82
10482;BME280;5288;42.334;23.876;2024-01-25T12:34:54;56405.16;;;-140.56;47.76
10482;BME280;5288;42.334;23.876;2024-01-25T12:37:22;56330.06;;;-140.56;48.23
10482;BME280;5288;42.334;23.876;2024-01-25T12:39:51;56379.47;;;-140.56;48.94
10482;BME280;5288;42.334;23.876;2024-01-25T12:42:19;56373.56;;;-140.56;50.04
10482;BME280;5288;42.334;23.876;2024-01-25T12:44:45;56434.81;;;-140.56;48.60